createdAt,value
2022-10-24T00:00:59.815Z,99.99
2022-10-24T00:04:07.605Z,99.99
2022-10-24T00:07:15.277Z,99.99
2022-10-24T00:10:23.449Z,99.99
2022-10-24T00:13:30.749Z,99.99
2022-10-24T00:16:38.921Z,99.99
2022-10-24T00:19:46.954Z,99.99
2022-10-24T00:22:54.211Z,99.99
2022-10-24T00:26:02.387Z,99.99
2022-10-24T00:29:10.256Z,99.99
2022-10-24T00:32:17.541Z,99.99
2022-10-24T00:35:26.486Z,99.99
2022-10-24T00:38:34.198Z,99.99
2022-10-24T00:41:41.904Z,99.99
2022-10-24T00:44:50.079Z,99.99
2022-10-24T00:47:57.837Z,99.99
2022-10-24T00:51:05.460Z,99.99
2022-10-24T00:54:13.345Z,99.99
2022-10-24T00:57:21.158Z,99.99
2022-10-24T01:00:28.819Z,99.99
2022-10-24T01:03:36.471Z,99.99
2022-10-24T01:06:44.291Z,99.99
2022-10-24T01:09:52.062Z,99.99
2022-10-24T01:12:59.546Z,99.99
2022-10-24T01:16:07.481Z,99.99
2022-10-24T01:19:14.734Z,99.99
2022-10-24T01:22:22.406Z,99.99
2022-10-24T01:25:30.488Z,99.99
2022-10-24T01:28:37.793Z,99.99
2022-10-24T01:31:45.716Z,99.99
2022-10-24T01:34:53.817Z,99.99
2022-10-24T01:38:01.190Z,99.99
2022-10-24T01:41:09.267Z,99.99
2022-10-24T01:44:17.460Z,99.99
2022-10-24T01:47:24.794Z,99.99
2022-10-24T01:50:32.971Z,99.99
2022-10-24T01:53:41.048Z,99.99
2022-10-24T01:56:48.347Z,99.99
2022-10-24T01:59:56.442Z,99.99
2022-10-24T02:03:04.133Z,99.99
2022-10-24T02:06:11.952Z,99.99
2022-10-24T02:09:20.112Z,99.99
2022-10-24T02:12:27.896Z,99.99
2022-10-24T02:15:35.400Z,99.99
2022-10-24T02:18:43.250Z,99.99
2022-10-24T02:21:51.528Z,99.99
2022-10-24T02:24:59.242Z,99.99
2022-10-24T02:28:07.009Z,99.99
2022-10-24T02:31:15.151Z,99.99
2022-10-24T02:34:23.160Z,99.99
2022-10-24T02:37:30.362Z,99.99
2022-10-24T02:40:38.295Z,99.99
2022-10-24T02:43:45.502Z,99.99
2022-10-24T02:46:53.556Z,99.99
2022-10-24T02:50:01.442Z,99.99
2022-10-24T02:53:08.606Z,99.99
2022-10-24T02:56:16.445Z,99.99
2022-10-24T02:59:24.639Z,99.99
2022-10-24T03:02:31.808Z,99.99
2022-10-24T03:05:39.732Z,99.99
2022-10-24T03:08:47.638Z,99.99
2022-10-24T03:11:55.382Z,99.99
2022-10-24T03:15:03.302Z,99.99
2022-10-24T03:18:11.119Z,99.99
2022-10-24T03:21:18.843Z,99.99
2022-10-24T03:24:37.153Z,99.99
2022-10-24T03:27:31.495Z,99.99
2022-10-24T03:30:39.165Z,99.99
2022-10-24T03:33:47.326Z,99.99
2022-10-24T03:36:55.088Z,99.99
2022-10-24T03:40:02.765Z,99.99
2022-10-24T03:43:10.509Z,99.99
2022-10-24T03:46:18.627Z,99.99
2022-10-24T03:49:26.258Z,99.99
2022-10-24T03:52:33.795Z,99.99
2022-10-24T03:55:41.871Z,99.99
2022-10-24T03:58:49.494Z,99.99
2022-10-24T04:01:57.217Z,99.99
2022-10-24T04:05:05.185Z,99.99
2022-10-24T04:08:12.454Z,99.99
2022-10-24T04:11:20.484Z,99.99
2022-10-24T04:14:28.572Z,99.99
2022-10-24T04:17:35.884Z,99.99
2022-10-24T04:20:43.959Z,99.99
2022-10-24T04:23:52.062Z,99.99
2022-10-24T04:26:59.314Z,99.99
2022-10-24T04:30:07.389Z,99.99
2022-10-24T04:33:15.570Z,99.99
2022-10-24T04:36:22.913Z,99.99
2022-10-24T04:39:30.910Z,99.99
2022-10-24T04:42:38.621Z,99.99
2022-10-24T04:45:46.195Z,99.99
2022-10-24T04:48:54.083Z,99.99
2022-10-24T04:52:01.995Z,99.99
2022-10-24T04:55:09.683Z,99.99
2022-10-24T04:58:18.115Z,99.99
2022-10-24T05:01:26.174Z,99.99
2022-10-24T05:04:33.924Z,99.99
2022-10-24T05:07:42.527Z,99.99
2022-10-24T05:10:50.430Z,99.99
2022-10-24T05:13:58.383Z,99.99
2022-10-24T05:17:06.145Z,99.99
2022-10-24T05:20:14.207Z,99.99
2022-10-24T05:23:21.975Z,99.99
2022-10-24T05:26:29.608Z,99.99
2022-10-24T05:29:37.331Z,99.99
2022-10-24T05:32:45.457Z,99.99
2022-10-24T05:35:53.489Z,99.99
2022-10-24T05:39:01.429Z,99.99
2022-10-24T05:42:09.335Z,99.99
2022-10-24T05:45:17.531Z,99.99
2022-10-24T05:48:25.360Z,99.99
2022-10-24T05:51:32.730Z,99.99
2022-10-24T05:54:55.121Z,99.99
2022-10-24T05:57:46.055Z,99.99
2022-10-24T06:00:54.318Z,99.99
2022-10-24T06:04:02.546Z,99.99
2022-10-24T06:07:10.395Z,99.99
2022-10-24T06:10:17.876Z,99.99
2022-10-24T06:13:25.895Z,99.99
2022-10-24T06:16:33.160Z,99.99
2022-10-24T06:19:41.253Z,99.99
2022-10-24T06:22:49.368Z,99.99
2022-10-24T06:25:56.728Z,99.99
2022-10-24T06:29:04.820Z,99.99
2022-10-24T06:32:13.123Z,99.99
2022-10-24T06:35:20.493Z,99.99
2022-10-24T06:38:28.597Z,99.99
2022-10-24T06:41:36.266Z,99.99
2022-10-24T06:44:43.514Z,99.99
2022-10-24T06:47:54.050Z,99.99
2022-10-24T06:50:51.574Z,99.99
2022-10-24T06:53:59.176Z,99.99
2022-10-24T06:57:07.251Z,99.99
2022-10-24T07:00:15.021Z,99.99
2022-10-24T07:03:22.814Z,99.99
2022-10-24T07:06:30.735Z,99.99
2022-10-24T07:09:38.726Z,99.99
2022-10-24T07:12:46.670Z,99.99
2022-10-24T07:15:54.657Z,99.99
2022-10-24T07:19:02.801Z,99.99
2022-10-24T07:22:10.551Z,99.68
2022-10-24T07:25:18.367Z,99.33
2022-10-24T07:28:26.405Z,98.92
2022-10-24T07:31:33.834Z,98.62
2022-10-24T07:34:41.696Z,98.52
2022-10-24T07:37:49.390Z,98.62
2022-10-24T07:40:56.651Z,98.62
2022-10-24T07:44:04.712Z,98.41
2022-10-24T07:47:12.197Z,97.96
2022-10-24T07:50:19.537Z,97.76
2022-10-24T07:53:27.561Z,96.90
2022-10-24T07:56:35.260Z,95.94
2022-10-24T07:59:43.029Z,95.50
2022-10-24T08:02:51.150Z,93.93
2022-10-24T08:05:59.312Z,92.16
2022-10-24T08:09:06.662Z,91.41
2022-10-24T08:12:14.745Z,90.20
2022-10-24T08:15:22.530Z,89.14
2022-10-24T08:18:30.681Z,89.54
2022-10-24T08:21:38.984Z,89.34
2022-10-24T08:24:46.882Z,88.53
2022-10-24T08:27:54.566Z,89.95
2022-10-24T08:31:02.572Z,88.84
2022-10-24T08:34:12.525Z,88.70
2022-10-24T08:37:20.264Z,88.70
2022-10-24T08:40:27.985Z,88.59
2022-10-24T08:43:35.868Z,88.04
2022-10-24T08:46:43.506Z,87.34
2022-10-24T08:49:51.229Z,87.24
2022-10-24T08:52:59.161Z,87.19
2022-10-24T08:56:06.860Z,86.55
2022-10-24T08:59:14.649Z,85.54
2022-10-24T09:02:23.208Z,85.34
2022-10-24T09:05:31.018Z,83.98
2022-10-24T09:08:39.413Z,83.98
2022-10-24T09:11:47.655Z,83.88
2022-10-24T09:14:55.407Z,83.88
2022-10-24T09:18:03.967Z,82.84
2022-10-24T09:21:12.105Z,81.62
2022-10-24T09:24:19.661Z,82.09
2022-10-24T09:27:27.910Z,81.48
2022-10-24T09:30:35.411Z,80.88
2022-10-24T09:33:43.654Z,81.68
2022-10-24T09:36:51.936Z,82.90
2022-10-24T09:39:59.487Z,81.18
2022-10-24T09:43:07.881Z,80.68
2022-10-24T09:46:16.199Z,81.59
2022-10-24T09:49:24.135Z,82.59
2022-10-24T09:52:32.077Z,82.59
2022-10-24T09:55:39.927Z,81.79
2022-10-24T09:58:48.117Z,82.59
2022-10-24T10:01:56.109Z,81.28
2022-10-24T10:05:03.923Z,80.64
2022-10-24T10:08:11.845Z,81.24
2022-10-24T10:11:19.819Z,80.84
2022-10-24T10:14:27.884Z,80.94
2022-10-24T10:17:36.477Z,80.30
2022-10-24T10:20:44.161Z,79.19
2022-10-24T10:23:52.468Z,79.39
2022-10-24T10:27:00.560Z,79.76
2022-10-24T10:30:08.563Z,78.35
2022-10-24T10:33:17.018Z,78.35
2022-10-24T10:36:25.004Z,78.85
2022-10-24T10:39:33.019Z,77.81
2022-10-24T10:42:41.385Z,78.01
2022-10-24T10:45:49.439Z,77.57
2022-10-24T10:48:57.497Z,77.27
2022-10-24T10:52:05.943Z,75.26
2022-10-24T10:55:13.706Z,76.36
2022-10-24T10:58:21.918Z,75.92
2022-10-24T11:01:30.343Z,75.92
2022-10-24T11:04:38.083Z,75.82
2022-10-24T11:07:46.775Z,75.12
2022-10-24T11:10:55.240Z,75.09
2022-10-24T11:14:03.273Z,76.29
2022-10-24T11:17:11.788Z,74.78
2022-10-24T11:20:19.485Z,75.35
2022-10-24T11:23:27.670Z,75.15
2022-10-24T11:26:36.357Z,74.24
2022-10-24T11:29:44.492Z,74.65
2022-10-24T11:32:52.683Z,73.94
2022-10-24T11:36:00.661Z,74.35
2022-10-24T11:39:08.652Z,72.53
2022-10-24T11:42:16.773Z,73.64
2022-10-24T11:45:24.965Z,73.68
2022-10-24T11:48:33.396Z,74.98
2022-10-24T11:51:41.388Z,75.38
2022-10-24T11:54:49.334Z,74.98
2022-10-24T11:57:57.721Z,75.02
2022-10-24T12:01:05.824Z,76.63
2022-10-24T12:04:13.424Z,75.52
2022-10-24T12:07:21.795Z,76.06
2022-10-24T12:10:29.510Z,75.56
2022-10-24T12:13:38.055Z,76.12
2022-10-24T12:16:46.585Z,74.82
2022-10-24T12:19:54.278Z,77.70
2022-10-24T12:23:02.661Z,74.04
2022-10-24T12:26:10.753Z,74.57
2022-10-24T12:29:19.127Z,73.67
2022-10-24T12:32:27.366Z,70.76
2022-10-24T12:35:35.336Z,71.97
2022-10-24T12:38:43.702Z,71.56
2022-10-24T12:41:51.578Z,69.35
2022-10-24T12:44:59.406Z,69.46
2022-10-24T12:48:07.658Z,70.06
2022-10-24T12:51:15.581Z,69.32
2022-10-24T12:54:23.692Z,67.85
2022-10-24T12:57:32.282Z,69.39
2022-10-24T13:00:40.086Z,71.80
2022-10-24T13:03:48.174Z,69.49
2022-10-24T13:06:56.595Z,71.90
2022-10-24T13:10:04.036Z,70.23
2022-10-24T13:13:12.066Z,70.96
2022-10-24T13:16:20.331Z,71.47
2022-10-24T13:19:27.672Z,71.77
2022-10-24T13:22:35.903Z,70.66
2022-10-24T13:25:43.692Z,71.26
2022-10-24T13:28:51.121Z,69.56
2022-10-24T13:31:59.395Z,70.06
2022-10-24T13:35:07.170Z,70.46
2022-10-24T13:38:14.846Z,71.87
2022-10-24T13:41:22.618Z,71.30
2022-10-24T13:44:30.440Z,71.87
2022-10-24T13:47:38.225Z,70.16
2022-10-24T13:50:45.775Z,70.16
2022-10-24T13:53:53.507Z,69.56
2022-10-24T13:57:02.337Z,71.09
2022-10-24T14:00:10.265Z,70.79
2022-10-24T14:03:17.990Z,72.00
2022-10-24T14:06:25.678Z,72.50
2022-10-24T14:09:33.743Z,71.60
2022-10-24T14:12:41.437Z,71.50
2022-10-24T14:15:49.253Z,73.00
2022-10-24T14:18:57.260Z,72.44
2022-10-24T14:22:05.338Z,72.74
2022-10-24T14:25:13.462Z,71.94
2022-10-24T14:28:21.822Z,72.17
2022-10-24T14:31:29.768Z,71.16
2022-10-24T14:34:37.635Z,72.47
2022-10-24T14:37:48.255Z,71.87
2022-10-24T14:41:07.956Z,72.07
2022-10-24T14:44:01.381Z,72.81
2022-10-24T14:47:09.409Z,72.81
2022-10-24T14:50:16.759Z,74.12
2022-10-24T14:53:25.110Z,74.22
2022-10-24T14:56:33.635Z,73.72
2022-10-24T14:59:41.223Z,73.55
2022-10-24T15:02:50.115Z,73.85
2022-10-24T15:05:57.937Z,74.86
2022-10-24T15:09:06.226Z,84.17
2022-10-24T15:12:14.583Z,87.41
2022-10-24T15:15:23.634Z,88.71
2022-10-24T15:18:31.485Z,91.08
2022-10-24T15:21:40.930Z,92.09
2022-10-24T15:24:48.772Z,93.55
2022-10-24T15:27:56.564Z,94.66
2022-10-24T15:31:04.334Z,95.37
2022-10-24T15:34:12.629Z,96.42
2022-10-24T15:37:20.546Z,97.94
2022-10-24T15:40:28.185Z,98.39
2022-10-24T15:43:36.583Z,98.70
2022-10-24T15:46:44.487Z,99.21
2022-10-24T15:49:52.381Z,99.76
2022-10-24T15:53:00.422Z,99.99
2022-10-24T15:56:08.057Z,99.99
2022-10-24T15:59:15.914Z,99.99
2022-10-24T16:02:24.644Z,99.99
2022-10-24T16:05:32.122Z,98.90
2022-10-24T16:08:41.946Z,97.38
2022-10-24T16:11:50.159Z,95.14
2022-10-24T16:15:00.657Z,94.09
2022-10-24T16:18:09.191Z,91.96
2022-10-24T16:21:17.660Z,89.59
2022-10-24T16:24:25.472Z,87.36
2022-10-24T16:27:33.736Z,85.50
2022-10-24T16:30:41.516Z,84.28
2022-10-24T16:33:49.328Z,83.44
2022-10-24T16:36:57.685Z,83.33
2022-10-24T16:40:05.409Z,84.08
2022-10-24T16:43:13.309Z,84.48
2022-10-24T16:46:21.087Z,85.60
2022-10-24T16:49:29.181Z,85.74
2022-10-24T16:52:37.366Z,85.24
2022-10-24T16:55:44.938Z,85.54
2022-10-24T16:58:53.392Z,85.74
2022-10-24T17:02:02.012Z,85.94
2022-10-24T17:05:09.774Z,85.99
2022-10-24T17:08:18.145Z,85.58
2022-10-24T17:11:44.420Z,86.53
2022-10-24T17:14:30.969Z,86.22
2022-10-24T17:17:38.809Z,87.08
2022-10-24T17:20:46.402Z,86.77
2022-10-24T17:23:54.573Z,86.88
2022-10-24T17:27:02.499Z,87.12
2022-10-24T17:30:10.126Z,87.43
2022-10-24T17:33:18.252Z,87.12
2022-10-24T17:36:25.847Z,87.67
2022-10-24T17:39:34.079Z,87.77
2022-10-24T17:42:42.174Z,88.38
2022-10-24T17:45:49.778Z,88.07
2022-10-24T17:48:58.290Z,88.42
2022-10-24T17:52:05.978Z,88.52
2022-10-24T17:55:22.267Z,88.62
2022-10-24T17:58:18.431Z,88.73
2022-10-24T18:01:25.825Z,88.82
2022-10-24T18:04:34.000Z,88.73
2022-10-24T18:07:42.145Z,88.93
2022-10-24T18:10:49.592Z,89.03
2022-10-24T18:13:57.694Z,88.97
2022-10-24T18:17:05.971Z,89.48
2022-10-24T18:20:13.348Z,89.78
2022-10-24T18:23:21.401Z,89.68
2022-10-24T18:26:29.224Z,89.84
2022-10-24T18:29:37.007Z,89.74
2022-10-24T18:32:45.360Z,89.54
2022-10-24T18:35:53.180Z,89.43
2022-10-24T18:39:00.920Z,89.39
2022-10-24T18:42:08.796Z,89.19
2022-10-24T18:45:16.463Z,88.99
2022-10-24T18:48:24.239Z,88.89
2022-10-24T18:51:32.420Z,89.39
2022-10-24T18:54:40.276Z,90.11
2022-10-24T18:57:48.465Z,89.59
2022-10-24T19:00:56.486Z,89.64
2022-10-24T19:04:04.401Z,89.74
2022-10-24T19:07:12.025Z,89.88
2022-10-24T19:10:19.778Z,90.19
2022-10-24T19:13:27.974Z,90.53
2022-10-24T19:16:35.563Z,91.25
2022-10-24T19:19:43.139Z,91.60
2022-10-24T19:22:51.238Z,92.10
2022-10-24T19:25:58.746Z,92.25
2022-10-24T19:29:06.884Z,91.84
2022-10-24T19:32:14.527Z,91.39
2022-10-24T19:35:21.859Z,91.03
2022-10-24T19:38:29.860Z,90.78
2022-10-24T19:41:37.598Z,90.17
2022-10-24T19:44:45.295Z,90.07
2022-10-24T19:47:53.272Z,89.46
2022-10-24T19:51:01.070Z,89.52
2022-10-24T19:54:08.787Z,89.01
2022-10-24T19:57:16.909Z,88.81
2022-10-24T20:00:24.138Z,88.06
2022-10-24T20:03:32.129Z,87.34
2022-10-24T20:06:40.262Z,86.90
2022-10-24T20:09:47.648Z,86.08
2022-10-24T20:12:55.779Z,85.88
2022-10-24T20:16:03.452Z,85.64
2022-10-24T20:19:11.302Z,85.27
2022-10-24T20:22:19.475Z,85.58
2022-10-24T20:25:27.971Z,85.88
2022-10-24T20:28:35.540Z,85.47
2022-10-24T20:31:44.924Z,85.78
2022-10-24T20:34:52.814Z,85.68
2022-10-24T20:38:00.905Z,85.27
2022-10-24T20:41:08.648Z,85.98
2022-10-24T20:44:16.086Z,85.88
2022-10-24T20:47:23.927Z,85.47
2022-10-24T20:50:31.652Z,85.94
2022-10-24T20:53:39.429Z,85.44
2022-10-24T20:56:47.459Z,85.53
2022-10-24T20:59:55.055Z,85.53
2022-10-24T21:03:02.930Z,84.83
2022-10-24T21:06:10.645Z,85.17
2022-10-24T21:09:18.855Z,85.58
2022-10-24T21:12:26.618Z,85.52
2022-10-24T21:15:34.237Z,85.92
2022-10-24T21:18:42.665Z,86.57
2022-10-24T21:21:50.245Z,86.77
2022-10-24T21:24:58.039Z,87.38
2022-10-24T21:28:05.638Z,87.53
2022-10-24T21:31:12.812Z,87.93
2022-10-24T21:34:20.711Z,88.13
2022-10-24T21:37:28.415Z,88.75
2022-10-24T21:40:35.612Z,88.75
2022-10-24T21:43:43.663Z,89.15
2022-10-24T21:46:51.135Z,89.15
2022-10-24T21:49:58.698Z,89.36
2022-10-24T21:53:07.179Z,89.26
2022-10-24T21:56:14.894Z,88.95
2022-10-24T21:59:22.665Z,89.15
2022-10-24T22:02:30.743Z,89.36
2022-10-24T22:05:38.397Z,89.22
2022-10-24T22:08:46.112Z,89.52
2022-10-24T22:11:53.780Z,89.48
2022-10-24T22:15:01.943Z,90.45
2022-10-24T22:18:09.532Z,91.51
2022-10-24T22:21:16.913Z,92.12
2022-10-24T22:24:24.936Z,92.67
2022-10-24T22:27:32.455Z,93.18
2022-10-24T22:30:40.136Z,93.79
2022-10-24T22:33:48.085Z,93.79
2022-10-24T22:36:55.265Z,94.34
2022-10-24T22:40:03.266Z,94.64
2022-10-24T22:43:11.461Z,95.25
2022-10-24T22:46:18.754Z,95.46
2022-10-24T22:49:26.977Z,96.01
2022-10-24T22:52:34.942Z,95.91
2022-10-24T22:55:42.271Z,96.11
2022-10-24T22:58:50.215Z,96.11
2022-10-24T23:01:57.819Z,96.42
2022-10-24T23:05:05.654Z,96.36
2022-10-24T23:08:13.667Z,96.67
2022-10-24T23:11:21.658Z,97.17
2022-10-24T23:14:29.604Z,97.58
2022-10-24T23:17:37.844Z,97.99
2022-10-24T23:20:45.529Z,98.30
2022-10-24T23:34:26.395Z,98.39
2022-10-24T23:37:34.284Z,98.30
2022-10-24T23:40:42.218Z,97.99
2022-10-24T23:43:49.493Z,97.99
2022-10-24T23:46:56.573Z,97.64
2022-10-24T23:50:04.070Z,97.53
2022-10-24T23:53:11.081Z,97.64
2022-10-24T23:56:18.122Z,97.33
2022-10-24T23:59:25.534Z,97.13
